createdAt,value
2022-09-06T00:02:10.223Z,100465.00
2022-09-06T00:04:43.688Z,100457.00
2022-09-06T00:07:18.612Z,100448.00
2022-09-06T00:09:53.440Z,100452.00
2022-09-06T00:12:27.656Z,100441.00
2022-09-06T00:15:01.074Z,100447.00
2022-09-06T00:17:35.492Z,100456.00
2022-09-06T00:20:10.302Z,100444.00
2022-09-06T00:22:45.068Z,100434.00
2022-09-06T00:25:18.660Z,100437.00
2022-09-06T00:27:56.533Z,100445.00
2022-09-06T00:30:34.594Z,100435.00
2022-09-06T00:33:08.097Z,100424.00
2022-09-06T00:35:41.555Z,100443.00
2022-09-06T00:38:16.674Z,100436.00
2022-09-06T00:40:50.175Z,100432.00
2022-09-06T00:43:23.539Z,100432.00
2022-09-06T00:45:57.935Z,100432.00
2022-09-06T00:48:32.393Z,100431.00
2022-09-06T00:51:10.747Z,100423.00
2022-09-06T00:53:46.359Z,100433.00
2022-09-06T00:56:20.213Z,100434.00
2022-09-06T00:58:53.979Z,100445.00
2022-09-06T01:01:28.867Z,100463.00
2022-09-06T01:04:09.452Z,100476.00
2022-09-06T01:07:05.370Z,100504.00
2022-09-06T01:10:03.087Z,100506.00
2022-09-06T01:12:53.042Z,100493.00
2022-09-06T01:15:42.079Z,100506.00
2022-09-06T01:18:32.752Z,100497.00
2022-09-06T01:21:23.603Z,100507.00
2022-09-06T01:24:33.073Z,100517.00
2022-09-06T01:27:58.817Z,100519.00
2022-09-06T01:30:37.954Z,100514.00
2022-09-06T01:33:20.579Z,100524.00
2022-09-06T01:36:01.967Z,100497.00
2022-09-06T01:38:36.714Z,100511.00
2022-09-06T01:41:11.088Z,100513.00
2022-09-06T01:43:50.781Z,100494.00
2022-09-06T01:46:35.413Z,100510.00
2022-09-06T01:49:27.592Z,100522.00
2022-09-06T01:52:18.027Z,100522.00
2022-09-06T01:55:14.080Z,100516.00
2022-09-06T01:58:06.897Z,100517.00
2022-09-06T02:00:56.493Z,100514.00
2022-09-06T02:03:41.654Z,100511.00
2022-09-06T02:06:23.620Z,100511.00
2022-09-06T02:09:05.677Z,100506.00
2022-09-06T02:11:44.868Z,100506.00
2022-09-06T02:14:26.538Z,100515.00
2022-09-06T02:17:03.996Z,100520.00
2022-09-06T02:19:46.743Z,100511.00
2022-09-06T02:22:27.108Z,100503.00
2022-09-06T02:25:03.981Z,100504.00
2022-09-06T02:27:37.902Z,100509.00
2022-09-06T02:30:12.970Z,100509.00
2022-09-06T02:32:57.005Z,100503.00
2022-09-06T02:35:31.316Z,100509.00
2022-09-06T02:38:05.177Z,100500.00
2022-09-06T02:40:39.826Z,100501.00
2022-09-06T02:43:13.685Z,100526.00
2022-09-06T02:45:47.414Z,100516.00
2022-09-06T02:48:22.536Z,100507.00
2022-09-06T02:50:56.018Z,100510.00
2022-09-06T02:53:29.516Z,100513.00
2022-09-06T02:56:03.936Z,100519.00
2022-09-06T02:58:37.623Z,100510.00
2022-09-06T03:01:11.254Z,100496.00
2022-09-06T03:03:47.267Z,100490.00
2022-09-06T03:06:21.078Z,100503.00
2022-09-06T03:08:54.504Z,100494.00
2022-09-06T03:11:28.595Z,100509.00
2022-09-06T03:14:01.995Z,100494.00
2022-09-06T03:16:37.043Z,100495.00
2022-09-06T03:19:11.809Z,100496.00
2022-09-06T03:21:45.239Z,100491.00
2022-09-06T03:24:18.627Z,100495.00
2022-09-06T03:26:52.032Z,100501.00
2022-09-06T03:29:25.527Z,100505.00
2022-09-06T03:31:58.994Z,100495.00
2022-09-06T03:34:33.752Z,100489.00
2022-09-06T03:37:07.454Z,100496.00
2022-09-06T03:39:41.356Z,100491.00
2022-09-06T03:42:14.813Z,100489.00
2022-09-06T03:44:48.320Z,100466.00
2022-09-06T03:47:22.266Z,100476.00
2022-09-06T03:49:57.215Z,100469.00
2022-09-06T03:52:30.652Z,100478.00
2022-09-06T03:55:04.553Z,100477.00
2022-09-06T03:57:38.026Z,100477.00
2022-09-06T04:00:13.339Z,100467.00
2022-09-06T04:02:46.886Z,100471.00
2022-09-06T04:05:21.760Z,100446.00
2022-09-06T04:07:59.027Z,100433.00
2022-09-06T04:10:32.543Z,100427.00
2022-09-06T04:13:05.903Z,100446.00
2022-09-06T04:15:40.484Z,100445.00
2022-09-06T04:18:13.825Z,100437.00
2022-09-06T04:20:50.979Z,100453.00
2022-09-06T04:23:25.911Z,100454.00
2022-09-06T04:26:00.908Z,100443.00
2022-09-06T04:28:34.266Z,100453.00
2022-09-06T04:31:07.668Z,100451.00
2022-09-06T04:33:41.859Z,100451.00
2022-09-06T04:36:16.641Z,100438.00
2022-09-06T04:38:50.056Z,100455.00
2022-09-06T04:41:23.743Z,100464.00
2022-09-06T04:43:57.101Z,100465.00
2022-09-06T04:46:32.229Z,100477.00
2022-09-06T04:49:05.697Z,100482.00
2022-09-06T04:51:41.031Z,100473.00
2022-09-06T04:54:17.998Z,100481.00
2022-09-06T04:56:51.352Z,100487.00
2022-09-06T04:59:24.947Z,100489.00
2022-09-06T05:01:58.723Z,100468.00
2022-09-06T05:04:32.144Z,100496.00
2022-09-06T05:07:09.417Z,100484.00
2022-09-06T05:09:42.838Z,100494.00
2022-09-06T05:12:16.462Z,100492.00
2022-09-06T05:14:49.880Z,100486.00
2022-09-06T05:17:23.434Z,100483.00
2022-09-06T05:19:56.867Z,100487.00
2022-09-06T05:22:32.180Z,100487.00
2022-09-06T05:25:06.149Z,100482.00
2022-09-06T05:27:39.524Z,100494.00
2022-09-06T05:30:14.792Z,100489.00
2022-09-06T05:32:48.161Z,100487.00
2022-09-06T05:35:21.509Z,100499.00
2022-09-06T05:37:56.586Z,100479.00
2022-09-06T05:40:30.176Z,100490.00
2022-09-06T05:43:03.740Z,100500.00
2022-09-06T05:45:37.454Z,100494.00
2022-09-06T05:48:10.869Z,100501.00
2022-09-06T05:50:44.364Z,100496.00
2022-09-06T05:53:19.236Z,100476.00
2022-09-06T05:55:52.598Z,100490.00
2022-09-06T05:58:26.147Z,100444.00
2022-09-06T06:01:08.686Z,100486.00
2022-09-06T06:03:43.318Z,100479.00
2022-09-06T06:06:16.767Z,100476.00
2022-09-06T06:08:52.361Z,100467.00
2022-09-06T06:11:29.646Z,100476.00
2022-09-06T06:14:04.653Z,100476.00
2022-09-06T06:16:38.798Z,100467.00
2022-09-06T06:19:12.635Z,100453.00
2022-09-06T06:21:46.046Z,100471.00
2022-09-06T06:24:21.007Z,100467.00
2022-09-06T06:26:54.897Z,100469.00
2022-09-06T06:29:29.546Z,100468.00
2022-09-06T06:32:03.339Z,100467.00
2022-09-06T06:34:36.821Z,100450.00
2022-09-06T06:37:10.334Z,100460.00
2022-09-06T06:39:45.298Z,100476.00
2022-09-06T06:42:18.746Z,100406.00
2022-09-06T06:44:53.330Z,100466.00
2022-09-06T06:47:26.890Z,100470.00
2022-09-06T06:50:00.341Z,100469.00
2022-09-06T06:52:34.065Z,100448.00
2022-09-06T06:55:10.115Z,100455.00
2022-09-06T06:57:43.562Z,100456.00
2022-09-06T07:00:17.590Z,100459.00
2022-09-06T07:02:52.972Z,100453.00
2022-09-06T07:08:19.932Z,100454.00
2022-09-06T07:10:54.777Z,100457.00
2022-09-06T07:13:28.402Z,100463.00
2022-09-06T07:16:11.094Z,100453.00
2022-09-06T07:18:46.058Z,100456.00
2022-09-06T07:21:42.213Z,100452.00
2022-09-06T07:24:16.074Z,100457.00
2022-09-06T07:29:44.491Z,100459.00
2022-09-06T07:32:18.298Z,100456.00
2022-09-06T07:34:52.011Z,100467.00
2022-09-06T07:37:25.475Z,100463.00
2022-09-06T07:39:58.994Z,100455.00
2022-09-06T07:42:36.235Z,100457.00
2022-09-06T07:45:11.179Z,100465.00
2022-09-06T07:48:00.203Z,100456.00
2022-09-06T07:50:50.166Z,100455.00
2022-09-06T07:53:30.446Z,100457.00
2022-09-06T07:56:07.622Z,100452.00
2022-09-06T07:58:42.704Z,100446.00
2022-09-06T08:01:27.136Z,100448.00
2022-09-06T08:04:02.600Z,100446.00
2022-09-06T08:09:32.381Z,100443.00
2022-09-06T08:12:07.687Z,100452.00
2022-09-06T08:14:42.574Z,100447.00
2022-09-06T08:17:16.310Z,100450.00
2022-09-06T08:19:49.717Z,100440.00
2022-09-06T08:22:23.077Z,100454.00
2022-09-06T08:24:56.435Z,100454.00
2022-09-06T08:27:30.004Z,100450.00
2022-09-06T08:30:05.830Z,100454.00
2022-09-06T08:32:41.242Z,100449.00
2022-09-06T08:35:14.871Z,100462.00
2022-09-06T08:37:48.320Z,100471.00
2022-09-06T08:40:24.866Z,100449.00
2022-09-06T08:42:58.630Z,100459.00
2022-09-06T08:45:35.956Z,100459.00
2022-09-06T08:48:09.583Z,100464.00
2022-09-06T08:50:58.944Z,100459.00
2022-09-06T08:53:32.421Z,100459.00
2022-09-06T08:56:18.241Z,100463.00
2022-09-06T08:59:06.615Z,100464.00
2022-09-06T09:02:03.362Z,100459.00
2022-09-06T09:04:41.688Z,100458.00
2022-09-06T09:07:47.537Z,100456.00
2022-09-06T09:10:29.199Z,100450.00
2022-09-06T09:13:08.623Z,100445.00
2022-09-06T09:15:42.057Z,100455.00
2022-09-06T09:18:25.270Z,100459.00
2022-09-06T09:21:00.662Z,100456.00
2022-09-06T09:23:34.181Z,100454.00
2022-09-06T09:26:15.229Z,100436.00
2022-09-06T09:29:05.837Z,100449.00
2022-09-06T09:31:43.349Z,100463.00
2022-09-06T09:34:34.245Z,100449.00
2022-09-06T09:40:16.986Z,100444.00
2022-09-06T09:42:58.631Z,100446.00
2022-09-06T09:45:35.498Z,100440.00
2022-09-06T09:48:22.592Z,100440.00
2022-09-06T09:51:26.110Z,100434.00
2022-09-06T09:54:03.796Z,100429.00
2022-09-06T09:56:49.038Z,100404.00
2022-09-06T09:59:30.206Z,100429.00
2022-09-06T10:02:19.575Z,100433.00
2022-09-06T10:05:02.259Z,100424.00
2022-09-06T10:07:46.017Z,100425.00
2022-09-06T10:10:25.481Z,100415.00
2022-09-06T10:13:11.371Z,100422.00
2022-09-06T10:15:44.961Z,100422.00
2022-09-06T10:18:31.577Z,100428.00
2022-09-06T10:21:07.420Z,100429.00
2022-09-06T10:24:26.760Z,100423.00
2022-09-06T10:27:03.317Z,100418.00
2022-09-06T10:29:47.969Z,100406.00
2022-09-06T10:32:41.503Z,100407.00
2022-09-06T10:35:24.782Z,100417.00
2022-09-06T10:38:28.488Z,100409.00
2022-09-06T10:41:26.191Z,100415.00
2022-09-06T10:44:14.402Z,100411.00
2022-09-06T10:47:01.079Z,100402.00
2022-09-06T10:49:38.402Z,100415.00
2022-09-06T10:52:20.221Z,100407.00
2022-09-06T10:55:04.697Z,100410.00
2022-09-06T11:00:48.009Z,100402.00
2022-09-06T11:06:33.904Z,100403.00
2022-09-06T11:09:24.375Z,100407.00
2022-09-06T11:12:11.599Z,100413.00
2022-09-06T11:14:48.284Z,100390.00
2022-09-06T11:17:42.783Z,100414.00
2022-09-06T11:20:29.928Z,100408.00
2022-09-06T11:23:48.288Z,100411.00
2022-09-06T11:26:36.594Z,100405.00
2022-09-06T11:29:18.655Z,100405.00
2022-09-06T11:34:57.197Z,100406.00
2022-09-06T11:37:39.574Z,100402.00
2022-09-06T11:40:26.894Z,100413.00
2022-09-06T11:47:01.898Z,100421.00
2022-09-06T11:49:41.934Z,100400.00
2022-09-06T11:53:03.198Z,100408.00
2022-09-06T11:55:40.367Z,100403.00
2022-09-06T11:58:28.188Z,100416.00
2022-09-06T12:01:38.730Z,100405.00
2022-09-06T12:04:15.825Z,100390.00
2022-09-06T12:07:13.036Z,100398.00
2022-09-06T12:09:46.811Z,100405.00
2022-09-06T12:12:43.291Z,100407.00
2022-09-06T12:15:26.333Z,100404.00
2022-09-06T12:18:02.269Z,100395.00
2022-09-06T12:21:04.758Z,100401.00
2022-09-06T12:23:44.576Z,100390.00
2022-09-06T12:26:55.512Z,100394.00
2022-09-06T12:29:30.653Z,100400.00
2022-09-06T12:32:06.158Z,100350.00
2022-09-06T12:34:43.229Z,100387.00
2022-09-06T12:37:33.593Z,100381.00
2022-09-06T12:40:16.304Z,100387.00
2022-09-06T12:42:52.108Z,100380.00
2022-09-06T12:45:28.298Z,100382.00
2022-09-06T12:48:12.194Z,100362.00
2022-09-06T12:50:45.716Z,100380.00
2022-09-06T12:53:28.555Z,100383.00
2022-09-06T12:56:08.226Z,100368.00
2022-09-06T12:58:42.221Z,100387.00
2022-09-06T13:01:23.972Z,100370.00
2022-09-06T13:04:05.710Z,100375.00
2022-09-06T13:06:45.731Z,100379.00
2022-09-06T13:09:23.960Z,100385.00
2022-09-06T13:12:06.636Z,100374.00
2022-09-06T13:14:40.317Z,100377.00
2022-09-06T13:17:27.173Z,100370.00
2022-09-06T13:20:13.850Z,100369.00
2022-09-06T13:22:55.814Z,100371.00
2022-09-06T13:25:30.524Z,100347.00
2022-09-06T13:28:06.372Z,100365.00
2022-09-06T13:30:49.046Z,100366.00
2022-09-06T13:33:34.188Z,100288.00
2022-09-06T13:36:22.597Z,100371.00
2022-09-06T13:38:56.636Z,100358.00
2022-09-06T13:41:57.653Z,100352.00
2022-09-06T13:44:33.703Z,100344.00
2022-09-06T13:47:07.712Z,100352.00
2022-09-06T13:49:41.007Z,100342.00
2022-09-06T13:52:16.827Z,100345.00
2022-09-06T13:54:50.101Z,100340.00
2022-09-06T13:57:24.919Z,100344.00
2022-09-06T13:59:58.308Z,100354.00
2022-09-06T14:02:32.506Z,100348.00
2022-09-06T14:05:06.355Z,100343.00
2022-09-06T14:07:39.716Z,100334.00
2022-09-06T14:10:13.475Z,100330.00
2022-09-06T14:12:48.422Z,100339.00
2022-09-06T14:15:21.894Z,100343.00
2022-09-06T14:17:55.494Z,100346.00
2022-09-06T14:20:29.131Z,100341.00
2022-09-06T14:23:02.762Z,100331.00
2022-09-06T14:25:38.023Z,100338.00
2022-09-06T14:28:12.984Z,100341.00
2022-09-06T14:30:46.482Z,100336.00
2022-09-06T14:33:21.159Z,100350.00
2022-09-06T14:35:54.546Z,100333.00
2022-09-06T14:38:28.129Z,100335.00
2022-09-06T14:41:05.713Z,100333.00
2022-09-06T14:43:40.581Z,100334.00
2022-09-06T14:46:16.495Z,100324.00
2022-09-06T14:48:51.217Z,100303.00
2022-09-06T14:51:24.988Z,100317.00
2022-09-06T14:54:05.540Z,100315.00
2022-09-06T14:56:41.931Z,100316.00
2022-09-06T14:59:17.277Z,100319.00
2022-09-06T15:01:51.143Z,100306.00
2022-09-06T15:04:26.322Z,100305.00
2022-09-06T15:07:01.097Z,100313.00
2022-09-06T15:09:35.046Z,100296.00
2022-09-06T15:12:08.801Z,100298.00
2022-09-06T15:14:43.841Z,100290.00
2022-09-06T15:17:17.403Z,100288.00
2022-09-06T15:19:50.896Z,100281.00
2022-09-06T15:22:24.314Z,100279.00
2022-09-06T15:24:57.942Z,100280.00
2022-09-06T15:27:31.586Z,100281.00
2022-09-06T15:30:08.048Z,100262.00
2022-09-06T15:32:41.910Z,100279.00
2022-09-06T15:35:16.043Z,100271.00
2022-09-06T15:37:50.145Z,100259.00
2022-09-06T15:40:25.061Z,100269.00
2022-09-06T15:42:59.838Z,100260.00
2022-09-06T15:45:49.437Z,100258.00
2022-09-06T15:48:23.026Z,100267.00
2022-09-06T15:51:06.180Z,100270.00
2022-09-06T15:53:40.149Z,100241.00
2022-09-06T15:56:17.989Z,100267.00
2022-09-06T15:58:51.551Z,100251.00
2022-09-06T16:01:28.018Z,100249.00
2022-09-06T16:04:07.095Z,100253.00
2022-09-06T16:06:43.061Z,100252.00
2022-09-06T16:09:17.708Z,100233.00
2022-09-06T16:11:51.284Z,100246.00
2022-09-06T16:14:25.310Z,100243.00
2022-09-06T16:17:00.335Z,100236.00
2022-09-06T16:19:33.929Z,100234.00
2022-09-06T16:22:07.714Z,100223.00
2022-09-06T16:24:41.210Z,100239.00
2022-09-06T16:27:14.728Z,100238.00
2022-09-06T16:29:48.245Z,100235.00
2022-09-06T16:32:23.193Z,100239.00
2022-09-06T16:34:58.123Z,100208.00
2022-09-06T16:37:34.372Z,100241.00
2022-09-06T16:40:10.336Z,100214.00
2022-09-06T16:42:44.590Z,100240.00
2022-09-06T16:45:18.253Z,100226.00
2022-09-06T16:47:57.506Z,100243.00
2022-09-06T16:50:31.333Z,100236.00
2022-09-06T16:53:04.924Z,100228.00
2022-09-06T16:55:39.195Z,100235.00
2022-09-06T16:58:12.876Z,100223.00
2022-09-06T17:00:46.913Z,100238.00
2022-09-06T17:03:22.027Z,100235.00
2022-09-06T17:05:56.835Z,100239.00
2022-09-06T17:08:33.088Z,100244.00
2022-09-06T17:11:10.595Z,100243.00
2022-09-06T17:13:46.196Z,100246.00
2022-09-06T17:16:38.971Z,100245.00
2022-09-06T17:19:14.279Z,100251.00
2022-09-06T17:21:47.933Z,100242.00
2022-09-06T17:24:21.875Z,100226.00
2022-09-06T17:26:55.479Z,100241.00
2022-09-06T17:29:28.983Z,100239.00
2022-09-06T17:32:04.265Z,100218.00
2022-09-06T17:34:39.955Z,100239.00
2022-09-06T17:37:14.186Z,100237.00
2022-09-06T17:39:47.820Z,100249.00
2022-09-06T17:42:21.679Z,100233.00
2022-09-06T17:44:55.744Z,100242.00
2022-09-06T17:47:29.345Z,100237.00
2022-09-06T17:50:04.522Z,100233.00
2022-09-06T17:52:39.313Z,100206.00
2022-09-06T17:55:13.055Z,100241.00
2022-09-06T17:57:46.495Z,100219.00
2022-09-06T18:00:20.081Z,100233.00
2022-09-06T18:02:53.851Z,100189.00
2022-09-06T18:05:28.874Z,100227.00
2022-09-06T18:08:02.480Z,100228.00
2022-09-06T18:10:37.727Z,100228.00
2022-09-06T18:13:24.980Z,100230.00
2022-09-06T18:15:58.842Z,100226.00
2022-09-06T18:18:37.386Z,100223.00
2022-09-06T18:21:13.212Z,100227.00
2022-09-06T18:23:46.666Z,100234.00
2022-09-06T18:26:20.580Z,100240.00
2022-09-06T18:28:54.674Z,100223.00
2022-09-06T18:31:29.048Z,100228.00
2022-09-06T18:34:02.891Z,100224.00
2022-09-06T18:36:39.373Z,100225.00
2022-09-06T18:39:13.486Z,100222.00
2022-09-06T18:42:03.870Z,100226.00
2022-09-06T18:44:38.486Z,100233.00
2022-09-06T18:47:13.342Z,100229.00
2022-09-06T18:49:48.744Z,100224.00
2022-09-06T18:52:23.636Z,100232.00
2022-09-06T18:54:57.166Z,100221.00
2022-09-06T18:57:30.921Z,100230.00
2022-09-06T19:00:07.255Z,100231.00
2022-09-06T19:02:40.785Z,100224.00
2022-09-06T19:05:14.535Z,100189.00
2022-09-06T19:07:49.541Z,100231.00
2022-09-06T19:10:23.133Z,100226.00
2022-09-06T19:12:57.181Z,100215.00
2022-09-06T19:15:33.664Z,100170.00
2022-09-06T19:18:07.395Z,100215.00
2022-09-06T19:20:41.013Z,100214.00
2022-09-06T19:23:16.081Z,100178.00
2022-09-06T19:25:57.385Z,100203.00
2022-09-06T19:28:32.063Z,100205.00
2022-09-06T19:31:09.458Z,100200.00
2022-09-06T19:33:44.719Z,100196.00
2022-09-06T19:36:20.554Z,100184.00
2022-09-06T19:39:03.629Z,100153.00
2022-09-06T19:41:43.003Z,100180.00
2022-09-06T19:44:18.532Z,100147.00
2022-09-06T19:46:56.880Z,100170.00
2022-09-06T19:49:30.767Z,100152.00
2022-09-06T19:52:13.668Z,100160.00
2022-09-06T19:54:50.881Z,100146.00
2022-09-06T19:57:24.710Z,100146.00
2022-09-06T19:59:58.126Z,100142.00
2022-09-06T20:02:32.057Z,100142.00
2022-09-06T20:05:06.302Z,100130.00
2022-09-06T20:07:39.796Z,100142.00
2022-09-06T20:10:14.798Z,100151.00
2022-09-06T20:12:48.288Z,100143.00
2022-09-06T20:15:22.068Z,100132.00
2022-09-06T20:17:55.556Z,100144.00
2022-09-06T20:20:29.110Z,100107.00
2022-09-06T20:23:03.549Z,100152.00
2022-09-06T20:25:39.822Z,100161.00
2022-09-06T20:28:13.537Z,100165.00
2022-09-06T20:30:47.013Z,100174.00
2022-09-06T20:33:20.472Z,100148.00
2022-09-06T20:35:59.104Z,100134.00
2022-09-06T20:38:34.005Z,100163.00
2022-09-06T20:41:11.558Z,100151.00
2022-09-06T20:43:46.784Z,100164.00
2022-09-06T20:46:25.932Z,100154.00
2022-09-06T20:49:04.387Z,100155.00
2022-09-06T20:51:40.508Z,100145.00
2022-09-06T20:54:15.574Z,100170.00
2022-09-06T20:56:50.796Z,100148.00
2022-09-06T20:59:24.773Z,100167.00
2022-09-06T21:01:58.904Z,100164.00
2022-09-06T21:04:32.671Z,100098.00
2022-09-06T21:07:07.004Z,100160.00
2022-09-06T21:09:40.871Z,100163.00
2022-09-06T21:12:16.159Z,100140.00
2022-09-06T21:14:49.726Z,100160.00
2022-09-06T21:17:23.650Z,100154.00
2022-09-06T21:19:57.324Z,100180.00
2022-09-06T21:22:31.236Z,100154.00
2022-09-06T21:25:05.911Z,100146.00
2022-09-06T21:27:47.760Z,100152.00
2022-09-06T21:30:21.340Z,100161.00
2022-09-06T21:32:56.881Z,100161.00
2022-09-06T21:35:31.007Z,100159.00
2022-09-06T21:38:04.609Z,100172.00
2022-09-06T21:40:38.740Z,100173.00
2022-09-06T21:43:15.535Z,100168.00
2022-09-06T21:45:50.200Z,100189.00
2022-09-06T21:48:23.625Z,100175.00
2022-09-06T21:51:03.855Z,100193.00
2022-09-06T21:53:39.710Z,100197.00
2022-09-06T21:56:14.156Z,100197.00
2022-09-06T21:58:52.195Z,100182.00
2022-09-06T22:01:28.267Z,100139.00
2022-09-06T22:04:02.641Z,100180.00
2022-09-06T22:06:38.070Z,100166.00
2022-09-06T22:09:15.394Z,100162.00
2022-09-06T22:11:48.944Z,100143.00
2022-09-06T22:14:25.966Z,100139.00
2022-09-06T22:16:59.575Z,100073.00
2022-09-06T22:19:33.253Z,100126.00
2022-09-06T22:22:06.962Z,100124.00
2022-09-06T22:24:40.780Z,100101.00
2022-09-06T22:27:14.339Z,100051.00
2022-09-06T22:29:49.815Z,100083.00
2022-09-06T22:32:24.356Z,100080.00
2022-09-06T22:35:01.229Z,100030.00
2022-09-06T22:37:37.338Z,100057.00
2022-09-06T22:40:12.566Z,100026.00
2022-09-06T22:42:46.454Z,100044.00
2022-09-06T22:45:21.606Z,100053.00
2022-09-06T22:47:55.555Z,100026.00
2022-09-06T22:50:31.410Z,100051.00
2022-09-06T22:53:05.156Z,100022.00
2022-09-06T22:55:40.178Z,100028.00
2022-09-06T22:58:13.959Z,100030.00
2022-09-06T23:00:52.033Z,100029.00
2022-09-06T23:03:29.776Z,100003.00
2022-09-06T23:06:04.136Z,99998.00
2022-09-06T23:08:40.539Z,99980.00
2022-09-06T23:11:17.079Z,99982.00
2022-09-06T23:13:56.947Z,99985.00
2022-09-06T23:16:32.413Z,100000.00
2022-09-06T23:19:06.381Z,100015.00
2022-09-06T23:21:39.833Z,100015.00
2022-09-06T23:24:14.842Z,99999.00
2022-09-06T23:26:48.955Z,100033.00
2022-09-06T23:29:23.295Z,100035.00
2022-09-06T23:31:58.527Z,100048.00
2022-09-06T23:34:32.387Z,100049.00
2022-09-06T23:37:07.200Z,100036.00
2022-09-06T23:39:41.448Z,100045.00
2022-09-06T23:42:15.664Z,100050.00
2022-09-06T23:44:49.362Z,100194.00
2022-09-06T23:47:24.859Z,100195.00
2022-09-06T23:49:58.477Z,100247.00
2022-09-06T23:52:32.189Z,100285.00
2022-09-06T23:55:06.505Z,100260.00
2022-09-06T23:57:40.612Z,100265.00
